createdAt,value
2023-05-22T00:02:17.911Z,17.32
2023-05-22T00:04:46.735Z,17.20
2023-05-22T00:07:14.276Z,17.08
2023-05-22T00:09:41.929Z,17.07
2023-05-22T00:12:09.694Z,17.15
2023-05-22T00:14:38.563Z,17.31
2023-05-22T00:17:06.311Z,17.55
2023-05-22T00:19:34.911Z,17.63
2023-05-22T00:22:02.442Z,17.54
2023-05-22T00:24:29.979Z,17.30
2023-05-22T00:26:57.479Z,17.30
2023-05-22T00:29:24.982Z,17.07
2023-05-22T00:31:53.868Z,17.15
2023-05-22T00:34:21.485Z,17.28
2023-05-22T00:36:49.002Z,17.31
2023-05-22T00:39:16.650Z,17.28
2023-05-22T00:41:44.201Z,17.21
2023-05-22T00:44:11.888Z,17.22
2023-05-22T00:46:39.426Z,16.97
2023-05-22T00:49:08.354Z,17.24
2023-05-22T00:51:36.020Z,17.15
2023-05-22T00:54:03.548Z,17.31
2023-05-22T00:56:31.143Z,17.33
2023-05-22T00:58:59.606Z,17.09
2023-05-22T01:01:33.374Z,17.35
2023-05-22T01:04:01.835Z,17.78
2023-05-22T01:06:32.169Z,17.86
2023-05-22T01:08:59.817Z,17.76
2023-05-22T01:11:33.128Z,18.09
2023-05-22T01:14:08.371Z,18.41
2023-05-22T01:16:46.484Z,18.32
2023-05-22T01:19:39.462Z,18.20
2023-05-22T01:22:27.251Z,18.09
2023-05-22T01:25:13.791Z,18.13
2023-05-22T01:28:03.458Z,17.51
2023-05-22T01:30:47.806Z,17.78
2023-05-22T01:33:17.160Z,17.68
2023-05-22T01:35:47.617Z,17.41
2023-05-22T01:38:16.531Z,17.08
2023-05-22T01:40:45.557Z,17.16
2023-05-22T01:43:14.299Z,17.24
2023-05-22T01:45:41.864Z,17.20
2023-05-22T01:48:11.935Z,17.22
2023-05-22T01:50:40.414Z,17.27
2023-05-22T01:53:16.447Z,17.03
2023-05-22T01:55:48.279Z,16.56
2023-05-22T01:58:24.660Z,16.95
2023-05-22T02:00:54.820Z,16.95
2023-05-22T02:03:29.527Z,16.60
2023-05-22T02:06:00.528Z,16.76
2023-05-22T02:08:29.102Z,16.47
2023-05-22T02:10:57.620Z,16.45
2023-05-22T02:13:25.570Z,16.44
2023-05-22T02:15:53.499Z,16.42
2023-05-22T02:18:22.280Z,16.69
2023-05-22T02:20:51.152Z,16.57
2023-05-22T02:23:18.673Z,16.67
2023-05-22T02:25:46.199Z,16.11
2023-05-22T02:28:13.692Z,16.33
2023-05-22T02:30:41.414Z,16.32
2023-05-22T02:33:09.336Z,15.50
2023-05-22T02:35:36.931Z,16.12
2023-05-22T02:38:06.548Z,16.13
2023-05-22T02:40:34.106Z,15.86
2023-05-22T02:43:01.611Z,15.59
2023-05-22T02:45:29.291Z,16.20
2023-05-22T02:47:56.791Z,15.94
2023-05-22T02:50:24.327Z,16.23
2023-05-22T02:52:51.823Z,16.36
2023-05-22T02:55:20.959Z,16.07
2023-05-22T02:57:48.513Z,15.96
2023-05-22T03:00:16.945Z,15.93
2023-05-22T03:02:44.587Z,16.16
2023-05-22T03:05:17.871Z,16.03
2023-05-22T03:07:48.306Z,15.39
2023-05-22T03:10:16.252Z,15.85
2023-05-22T03:12:45.067Z,16.16
2023-05-22T03:15:12.726Z,16.10
2023-05-22T03:17:40.384Z,16.23
2023-05-22T03:20:09.623Z,16.33
2023-05-22T03:22:37.170Z,16.04
2023-05-22T03:25:06.370Z,16.05
2023-05-22T03:27:33.896Z,16.18
2023-05-22T03:30:02.917Z,15.80
2023-05-22T03:32:30.564Z,16.06
2023-05-22T03:34:58.482Z,15.99
2023-05-22T03:37:25.983Z,16.20
2023-05-22T03:39:53.478Z,16.42
2023-05-22T03:42:21.020Z,16.07
2023-05-22T03:44:49.325Z,16.11
2023-05-22T03:47:18.213Z,16.45
2023-05-22T03:49:45.888Z,16.85
2023-05-22T03:52:13.659Z,17.17
2023-05-22T03:54:41.260Z,16.84
2023-05-22T03:57:08.760Z,17.69
2023-05-22T03:59:36.267Z,17.85
2023-05-22T04:02:04.194Z,18.61
2023-05-22T04:04:38.457Z,19.16
2023-05-22T04:07:08.144Z,19.39
2023-05-22T04:09:36.794Z,19.73
2023-05-22T04:12:04.601Z,19.77
2023-05-22T04:14:32.662Z,20.12
2023-05-22T04:17:00.449Z,20.13
2023-05-22T04:19:29.944Z,20.89
2023-05-22T04:21:59.547Z,21.44
2023-05-22T04:24:27.511Z,22.08
2023-05-22T04:26:55.051Z,22.59
2023-05-22T04:29:22.770Z,22.59
2023-05-22T04:31:50.293Z,23.06
2023-05-22T04:34:18.430Z,23.34
2023-05-22T04:36:46.524Z,22.82
2023-05-22T04:39:15.852Z,22.41
2023-05-22T04:41:43.354Z,22.48
2023-05-22T04:44:10.861Z,23.08
2023-05-22T04:46:38.485Z,22.69
2023-05-22T04:49:06.121Z,22.11
2023-05-22T04:51:34.962Z,22.52
2023-05-22T04:54:02.526Z,23.68
2023-05-22T04:56:36.370Z,23.37
2023-05-22T04:59:04.681Z,23.27
2023-05-22T05:01:33.486Z,24.18
2023-05-22T05:04:01.389Z,25.00
2023-05-22T05:06:29.090Z,25.67
2023-05-22T05:08:57.103Z,25.56
2023-05-22T05:11:24.607Z,25.50
2023-05-22T05:13:53.448Z,26.42
2023-05-22T05:16:21.048Z,26.30
2023-05-22T05:18:48.645Z,27.29
2023-05-22T05:21:16.336Z,27.78
2023-05-22T05:23:43.821Z,28.00
2023-05-22T05:26:11.315Z,27.35
2023-05-22T05:28:38.853Z,28.39
2023-05-22T05:31:08.514Z,28.18
2023-05-22T05:33:36.059Z,27.97
2023-05-22T05:36:03.565Z,28.19
2023-05-22T05:38:31.048Z,26.92
2023-05-22T05:40:58.555Z,27.00
2023-05-22T05:43:26.266Z,27.63
2023-05-22T05:45:53.919Z,26.05
2023-05-22T05:48:22.772Z,26.20
2023-05-22T05:50:50.281Z,25.53
2023-05-22T05:53:17.816Z,25.72
2023-05-22T05:55:45.378Z,26.02
2023-05-22T05:58:12.878Z,24.55
2023-05-22T06:00:42.341Z,25.53
2023-05-22T06:03:10.372Z,25.40
2023-05-22T06:05:39.318Z,24.60
2023-05-22T06:08:08.556Z,25.78
2023-05-22T06:10:36.106Z,26.23
2023-05-22T06:13:03.664Z,26.55
2023-05-22T06:15:31.581Z,26.47
2023-05-22T06:17:59.173Z,27.49
2023-05-22T06:20:27.584Z,28.00
2023-05-22T06:22:56.409Z,25.88
2023-05-22T06:25:25.922Z,25.28
2023-05-22T06:27:53.558Z,26.59
2023-05-22T06:30:35.706Z,28.06
2023-05-22T06:33:07.860Z,28.24
2023-05-22T06:35:35.566Z,29.21
2023-05-22T06:38:04.498Z,28.39
2023-05-22T06:40:32.000Z,27.39
2023-05-22T06:42:59.643Z,26.64
2023-05-22T06:45:27.158Z,27.56
2023-05-22T06:47:55.151Z,28.00
2023-05-22T06:50:23.104Z,27.75
2023-05-22T06:52:50.639Z,27.53
2023-05-22T06:55:19.590Z,28.60
2023-05-22T06:57:47.100Z,28.51
2023-05-22T07:00:15.323Z,29.35
2023-05-22T07:02:42.930Z,29.17
2023-05-22T07:05:10.603Z,30.53
2023-05-22T07:07:38.111Z,30.58
2023-05-22T07:10:06.576Z,31.50
2023-05-22T07:12:35.387Z,31.65
2023-05-22T07:15:03.068Z,31.50
2023-05-22T07:17:31.713Z,31.46
2023-05-22T07:19:59.239Z,31.08
2023-05-22T07:22:26.728Z,29.79
2023-05-22T07:24:54.235Z,30.67
2023-05-22T07:27:21.738Z,31.50
2023-05-22T07:29:50.757Z,31.81
2023-05-22T07:32:18.299Z,31.28
2023-05-22T07:34:45.808Z,31.44
2023-05-22T07:37:14.320Z,31.80
2023-05-22T07:39:41.864Z,30.84
2023-05-22T07:42:09.408Z,30.69
2023-05-22T07:44:37.144Z,31.64
2023-05-22T07:47:06.503Z,32.06
2023-05-22T07:49:34.133Z,31.94
2023-05-22T07:52:01.610Z,32.50
2023-05-22T07:54:29.115Z,32.01
2023-05-22T07:56:57.434Z,31.84
2023-05-22T07:59:25.525Z,31.84
2023-05-22T08:01:53.167Z,32.38
2023-05-22T08:04:22.183Z,32.71
2023-05-22T08:06:50.859Z,33.51
2023-05-22T08:09:18.704Z,33.65
2023-05-22T08:11:46.189Z,33.80
2023-05-22T08:14:13.893Z,33.60
2023-05-22T08:16:41.445Z,32.58
2023-05-22T08:19:09.247Z,32.97
2023-05-22T08:21:38.238Z,32.98
2023-05-22T08:24:06.057Z,33.76
2023-05-22T08:26:33.870Z,34.16
2023-05-22T08:29:01.671Z,33.89
2023-05-22T08:31:29.665Z,33.54
2023-05-22T08:34:02.183Z,33.87
2023-05-22T08:36:31.483Z,33.99
2023-05-22T08:39:01.187Z,34.21
2023-05-22T08:41:29.448Z,33.58
2023-05-22T08:43:56.987Z,32.04
2023-05-22T08:46:29.182Z,32.44
2023-05-22T08:48:57.960Z,33.75
2023-05-22T08:51:31.297Z,34.26
2023-05-22T08:54:01.632Z,33.82
2023-05-22T08:56:29.855Z,32.75
2023-05-22T08:58:58.544Z,32.65
2023-05-22T09:01:26.934Z,32.76
2023-05-22T09:03:54.853Z,32.22
2023-05-22T09:06:22.414Z,32.56
2023-05-22T09:08:51.460Z,31.82
2023-05-22T09:11:21.033Z,32.68
2023-05-22T09:13:49.854Z,33.10
2023-05-22T09:16:17.872Z,32.79
2023-05-22T09:18:45.472Z,33.04
2023-05-22T09:21:28.671Z,32.85
2023-05-22T09:24:01.007Z,33.05
2023-05-22T09:26:30.387Z,33.38
2023-05-22T09:29:00.772Z,33.03
2023-05-22T09:31:29.503Z,33.50
2023-05-22T09:33:57.280Z,33.52
2023-05-22T09:36:31.434Z,33.43
2023-05-22T09:39:01.655Z,32.88
2023-05-22T09:41:32.121Z,32.14
2023-05-22T09:44:01.133Z,33.18
2023-05-22T09:46:29.655Z,33.01
2023-05-22T09:48:57.264Z,33.24
2023-05-22T09:51:27.382Z,33.26
2023-05-22T09:54:03.767Z,33.05
2023-05-22T09:56:39.557Z,32.92
2023-05-22T09:59:10.266Z,32.79
2023-05-22T10:01:39.753Z,33.08
2023-05-22T10:04:12.643Z,33.32
2023-05-22T10:06:41.327Z,32.96
2023-05-22T10:09:19.098Z,32.52
2023-05-22T10:11:51.415Z,32.59
2023-05-22T10:14:19.203Z,32.60
2023-05-22T10:16:46.950Z,32.19
2023-05-22T10:19:15.292Z,32.11
2023-05-22T10:21:43.079Z,32.25
2023-05-22T10:24:11.347Z,32.34
2023-05-22T10:26:39.777Z,32.56
2023-05-22T10:29:12.897Z,33.28
2023-05-22T10:31:46.881Z,33.10
2023-05-22T10:34:23.897Z,33.67
2023-05-22T10:37:13.278Z,33.57
2023-05-22T10:39:55.490Z,33.41
2023-05-22T10:42:23.122Z,33.49
2023-05-22T10:44:54.013Z,33.09
2023-05-22T10:47:21.550Z,32.77
2023-05-22T10:49:50.698Z,32.86
2023-05-22T10:52:21.814Z,32.82
2023-05-22T10:54:53.555Z,33.29
2023-05-22T10:57:25.032Z,33.29
2023-05-22T11:00:09.413Z,33.51
2023-05-22T11:02:43.951Z,34.47
2023-05-22T11:05:36.821Z,34.91
2023-05-22T11:08:26.142Z,34.82
2023-05-22T11:10:54.906Z,35.24
2023-05-22T11:13:22.561Z,34.31
2023-05-22T11:15:51.400Z,33.68
2023-05-22T11:18:18.978Z,33.28
2023-05-22T11:20:47.884Z,33.91
2023-05-22T11:23:16.264Z,33.89
2023-05-22T11:25:43.864Z,34.23
2023-05-22T11:28:12.699Z,33.92
2023-05-22T11:30:41.320Z,33.87
2023-05-22T11:33:10.878Z,33.51
2023-05-22T11:35:38.670Z,34.11
2023-05-22T11:38:07.060Z,34.59
2023-05-22T11:40:34.738Z,34.89
2023-05-22T11:43:03.982Z,34.92
2023-05-22T11:45:31.508Z,34.81
2023-05-22T11:47:59.122Z,35.32
2023-05-22T11:50:43.230Z,35.74
2023-05-22T11:53:11.137Z,35.95
2023-05-22T11:55:38.681Z,36.61
2023-05-22T11:58:06.151Z,36.97
2023-05-22T12:00:34.045Z,36.31
2023-05-22T12:03:01.690Z,36.13
2023-05-22T12:05:32.637Z,36.38
2023-05-22T12:08:00.554Z,36.06
2023-05-22T12:10:28.055Z,35.83
2023-05-22T12:12:56.066Z,36.22
2023-05-22T12:15:25.343Z,36.47
2023-05-22T12:17:56.220Z,37.43
2023-05-22T12:20:24.071Z,37.73
2023-05-22T12:22:52.909Z,38.15
2023-05-22T12:25:20.986Z,36.89
2023-05-22T12:27:48.525Z,36.01
2023-05-22T12:30:16.887Z,36.23
2023-05-22T12:32:48.774Z,36.22
2023-05-22T12:35:16.978Z,36.03
2023-05-22T12:37:49.996Z,35.96
2023-05-22T12:40:19.289Z,35.93
2023-05-22T12:42:46.890Z,36.49
2023-05-22T12:45:14.396Z,36.95
2023-05-22T12:47:41.945Z,36.96
2023-05-22T12:50:10.153Z,36.55
2023-05-22T12:52:37.674Z,36.18
2023-05-22T12:55:05.823Z,35.79
2023-05-22T12:57:34.625Z,36.17
2023-05-22T13:00:02.159Z,35.47
2023-05-22T13:02:29.710Z,36.21
2023-05-22T13:04:57.265Z,36.85
2023-05-22T13:07:24.863Z,37.45
2023-05-22T13:09:52.548Z,37.02
2023-05-22T13:12:20.274Z,36.96
2023-05-22T13:14:49.093Z,36.76
2023-05-22T13:17:16.612Z,37.39
2023-05-22T13:19:44.127Z,38.38
2023-05-22T13:22:12.041Z,37.74
2023-05-22T13:24:39.522Z,38.04
2023-05-22T13:27:07.513Z,37.83
2023-05-22T13:29:35.180Z,37.71
2023-05-22T13:32:04.273Z,37.74
2023-05-22T13:34:31.847Z,38.25
2023-05-22T13:36:59.510Z,37.18
2023-05-22T13:39:27.019Z,37.14
2023-05-22T13:41:54.628Z,37.03
2023-05-22T13:44:22.235Z,37.49
2023-05-22T13:46:50.093Z,37.52
2023-05-22T13:49:18.990Z,36.79
2023-05-22T13:51:46.773Z,36.48
2023-05-22T13:54:14.283Z,36.10
2023-05-22T13:56:42.183Z,36.11
2023-05-22T13:59:09.680Z,36.19
2023-05-22T14:01:37.582Z,36.73
2023-05-22T14:04:05.540Z,38.04
2023-05-22T14:06:34.445Z,37.37
2023-05-22T14:09:02.114Z,37.05
2023-05-22T14:11:30.118Z,36.64
2023-05-22T14:13:57.622Z,36.35
2023-05-22T14:16:25.177Z,36.54
2023-05-22T14:18:52.797Z,37.02
2023-05-22T14:21:20.421Z,36.79
2023-05-22T14:23:49.224Z,37.01
2023-05-22T14:26:16.737Z,37.56
2023-05-22T14:28:44.498Z,38.23
2023-05-22T14:31:12.150Z,39.11
2023-05-22T14:33:39.666Z,39.47
2023-05-22T14:36:07.573Z,39.59
2023-05-22T14:38:35.271Z,38.52
2023-05-22T14:41:04.210Z,37.54
2023-05-22T14:43:31.748Z,37.03
2023-05-22T14:45:59.827Z,37.15
2023-05-22T14:48:29.249Z,37.06
2023-05-22T14:50:56.852Z,36.50
2023-05-22T14:53:24.429Z,35.72
2023-05-22T14:55:52.036Z,35.17
2023-05-22T14:58:20.882Z,35.73
2023-05-22T15:00:48.419Z,35.64
2023-05-22T15:03:16.806Z,35.87
2023-05-22T15:05:44.335Z,36.04
2023-05-22T15:08:11.830Z,36.49
2023-05-22T15:10:39.343Z,35.82
2023-05-22T15:13:06.836Z,35.28
2023-05-22T15:15:35.684Z,33.92
2023-05-22T15:18:04.756Z,33.99
2023-05-22T15:20:32.450Z,34.41
2023-05-22T15:23:00.890Z,35.02
2023-05-22T15:25:28.713Z,35.04
2023-05-22T15:27:56.196Z,35.59
2023-05-22T15:30:23.946Z,35.91
2023-05-22T15:32:52.845Z,35.93
2023-05-22T15:35:20.599Z,36.22
2023-05-22T15:37:48.093Z,36.28
2023-05-22T15:40:18.182Z,36.41
2023-05-22T15:42:45.766Z,36.23
2023-05-22T15:45:13.288Z,35.94
2023-05-22T15:47:40.813Z,35.47
2023-05-22T15:50:10.482Z,35.15
2023-05-22T15:52:38.201Z,34.65
2023-05-22T15:55:06.486Z,34.88
2023-05-22T15:57:34.577Z,34.71
2023-05-22T16:00:02.281Z,34.58
2023-05-22T16:02:29.896Z,34.57
2023-05-22T16:04:57.395Z,34.50
2023-05-22T16:07:26.365Z,34.66
2023-05-22T16:09:54.222Z,35.13
2023-05-22T16:12:21.770Z,35.20
2023-05-22T16:14:49.655Z,35.11
2023-05-22T16:17:17.211Z,34.95
2023-05-22T16:19:44.685Z,34.84
2023-05-22T16:22:12.207Z,34.84
2023-05-22T16:24:41.043Z,34.56
2023-05-22T16:27:08.687Z,34.93
2023-05-22T16:29:36.208Z,34.95
2023-05-22T16:32:03.838Z,35.09
2023-05-22T16:34:33.782Z,34.73
2023-05-22T16:37:01.411Z,34.40
2023-05-22T16:39:28.902Z,33.98
2023-05-22T16:41:57.733Z,33.48
2023-05-22T16:44:25.248Z,33.13
2023-05-22T16:46:52.880Z,33.24
2023-05-22T16:49:20.467Z,33.17
2023-05-22T16:51:47.983Z,33.30
2023-05-22T16:54:15.608Z,33.27
2023-05-22T16:56:43.170Z,33.42
2023-05-22T16:59:12.179Z,33.76
2023-05-22T17:01:39.714Z,34.15
2023-05-22T17:04:07.244Z,34.38
2023-05-22T17:06:36.145Z,34.52
2023-05-22T17:09:03.676Z,34.79
2023-05-22T17:11:31.178Z,35.02
2023-05-22T17:13:58.660Z,35.35
2023-05-22T17:16:27.532Z,35.50
2023-05-22T17:18:55.198Z,35.54
2023-05-22T17:21:22.759Z,35.45
2023-05-22T17:23:50.608Z,35.40
2023-05-22T17:26:18.158Z,35.20
2023-05-22T17:28:45.651Z,35.10
2023-05-22T17:31:13.151Z,35.20
2023-05-22T17:33:43.268Z,35.11
2023-05-22T17:36:10.774Z,34.97
2023-05-22T17:38:38.552Z,35.05
2023-05-22T17:41:06.339Z,35.09
2023-05-22T17:43:35.165Z,34.97
2023-05-22T17:46:02.945Z,34.79
2023-05-22T17:48:30.609Z,34.59
2023-05-22T17:50:59.766Z,34.30
2023-05-22T17:53:31.989Z,34.17
2023-05-22T17:55:59.645Z,33.95
2023-05-22T17:58:27.426Z,33.74
2023-05-22T18:00:55.004Z,33.61
2023-05-22T18:03:22.702Z,33.22
2023-05-22T18:05:50.952Z,32.55
2023-05-22T18:08:21.235Z,32.16
2023-05-22T18:10:49.859Z,31.67
2023-05-22T18:13:19.155Z,31.20
2023-05-22T18:15:48.190Z,30.51
2023-05-22T18:18:16.268Z,30.00
2023-05-22T18:20:44.312Z,29.52
2023-05-22T18:23:11.819Z,29.09
2023-05-22T18:25:40.855Z,28.50
2023-05-22T18:28:09.178Z,27.47
2023-05-22T18:30:36.743Z,26.74
2023-05-22T18:33:04.662Z,26.25
2023-05-22T18:35:32.245Z,26.71
2023-05-22T18:38:00.230Z,26.61
2023-05-22T18:40:27.741Z,26.32
2023-05-22T18:42:56.646Z,26.07
2023-05-22T18:45:24.133Z,25.76
2023-05-22T18:47:51.705Z,25.44
2023-05-22T18:50:21.112Z,25.20
2023-05-22T18:52:50.326Z,25.04
2023-05-22T18:55:17.824Z,24.80
2023-05-22T18:57:45.369Z,24.52
2023-05-22T19:00:14.754Z,24.29
2023-05-22T19:02:42.275Z,24.07
2023-05-22T19:05:10.902Z,23.83
2023-05-22T19:07:38.451Z,23.59
2023-05-22T19:10:08.199Z,23.30
2023-05-22T19:12:35.866Z,23.12
2023-05-22T19:15:03.569Z,22.99
2023-05-22T19:17:32.690Z,22.88
2023-05-22T19:20:00.243Z,22.78
2023-05-22T19:22:27.812Z,22.67
2023-05-22T19:24:55.338Z,22.46
2023-05-22T19:27:22.850Z,22.31
2023-05-22T19:29:50.434Z,22.19
2023-05-22T19:32:17.974Z,22.11
2023-05-22T19:34:47.450Z,22.05
2023-05-22T19:37:15.026Z,21.96
2023-05-22T19:39:42.518Z,21.80
2023-05-22T19:42:11.207Z,21.63
2023-05-22T19:44:38.775Z,21.45
2023-05-22T19:47:06.568Z,21.29
2023-05-22T19:49:36.759Z,21.20
2023-05-22T19:52:07.395Z,21.18
2023-05-22T19:54:35.586Z,21.11
2023-05-22T19:57:03.883Z,21.03
2023-05-22T19:59:31.402Z,20.85
2023-05-22T20:01:58.925Z,20.78
2023-05-22T20:04:26.649Z,20.63
2023-05-22T20:06:54.200Z,20.48
2023-05-22T20:09:23.093Z,20.35
2023-05-22T20:11:50.714Z,20.32
2023-05-22T20:14:18.257Z,20.27
2023-05-22T20:16:45.880Z,20.20
2023-05-22T20:19:14.814Z,20.12
2023-05-22T20:21:42.442Z,20.02
2023-05-22T20:24:12.001Z,19.96
2023-05-22T20:26:40.852Z,19.93
2023-05-22T20:29:08.345Z,19.89
2023-05-22T20:31:36.329Z,19.81
2023-05-22T20:34:04.653Z,19.74
2023-05-22T20:36:32.614Z,19.70
2023-05-22T20:39:00.139Z,19.67
2023-05-22T20:41:27.672Z,19.62
2023-05-22T20:43:58.421Z,19.54
2023-05-22T20:46:26.324Z,19.49
2023-05-22T20:48:54.014Z,19.42
2023-05-22T20:51:21.867Z,19.38
2023-05-22T20:53:49.449Z,19.27
2023-05-22T20:56:17.033Z,19.18
2023-05-22T20:58:44.539Z,19.17
2023-05-22T21:01:13.403Z,19.19
2023-05-22T21:03:40.926Z,19.20
2023-05-22T21:06:08.484Z,19.22
2023-05-22T21:08:35.986Z,19.17
2023-05-22T21:11:03.593Z,19.08
2023-05-22T21:13:31.130Z,19.01
2023-05-22T21:15:58.632Z,18.94
2023-05-22T21:18:27.477Z,18.88
2023-05-22T21:20:55.120Z,18.91
2023-05-22T21:23:24.512Z,18.91
2023-05-22T21:25:52.257Z,18.69
2023-05-22T21:28:19.803Z,18.50
2023-05-22T21:30:47.342Z,18.41
2023-05-22T21:33:14.848Z,18.49
2023-05-22T21:35:43.699Z,18.56
2023-05-22T21:38:11.225Z,18.55
2023-05-22T21:40:40.485Z,18.51
2023-05-22T21:43:08.236Z,18.44
2023-05-22T21:45:36.411Z,18.40
2023-05-22T21:48:03.985Z,18.47
2023-05-22T21:50:31.599Z,18.44
2023-05-22T21:53:00.434Z,18.47
2023-05-22T21:55:27.946Z,18.51
2023-05-22T21:57:56.289Z,18.38
2023-05-22T22:00:23.828Z,18.38
2023-05-22T22:02:51.400Z,18.42
2023-05-22T22:05:19.443Z,18.46
2023-05-22T22:07:47.013Z,18.58
2023-05-22T22:10:15.915Z,18.42
2023-05-22T22:12:43.440Z,18.39
2023-05-22T22:15:12.829Z,18.39
2023-05-22T22:17:40.672Z,18.72
2023-05-22T22:20:10.614Z,18.66
2023-05-22T22:22:38.126Z,18.86
2023-05-22T22:25:06.567Z,18.73
2023-05-22T22:27:35.546Z,18.68
2023-05-22T22:30:03.126Z,18.77
2023-05-22T22:32:30.799Z,18.82
2023-05-22T22:34:58.291Z,18.69
2023-05-22T22:37:25.795Z,18.54
2023-05-22T22:39:53.285Z,18.72
2023-05-22T22:42:20.797Z,18.74
2023-05-22T22:44:49.629Z,18.75
2023-05-22T22:47:17.246Z,18.68
2023-05-22T22:49:44.766Z,18.50
2023-05-22T22:52:12.258Z,18.50
2023-05-22T22:54:41.106Z,18.18
2023-05-22T22:57:10.592Z,18.25
2023-05-22T22:59:38.547Z,18.07
2023-05-22T23:02:08.207Z,18.39
2023-05-22T23:04:36.394Z,18.47
2023-05-22T23:07:04.155Z,18.67
2023-05-22T23:09:31.673Z,18.67
2023-05-22T23:11:59.207Z,18.90
2023-05-22T23:14:28.023Z,18.88
2023-05-22T23:16:55.640Z,18.78
2023-05-22T23:19:24.530Z,18.19
2023-05-22T23:21:53.533Z,17.76
2023-05-22T23:24:21.074Z,18.08
2023-05-22T23:26:48.632Z,18.41
2023-05-22T23:29:16.151Z,18.75
2023-05-22T23:31:43.725Z,19.35
2023-05-22T23:34:11.316Z,19.46
2023-05-22T23:36:41.214Z,19.53
2023-05-22T23:39:08.776Z,19.10
2023-05-22T23:41:36.386Z,18.97
2023-05-22T23:44:03.909Z,18.33
2023-05-22T23:46:31.413Z,18.23
2023-05-22T23:48:58.924Z,18.17
2023-05-22T23:51:26.423Z,18.35
2023-05-22T23:53:55.268Z,18.40
2023-05-22T23:56:22.777Z,18.58
2023-05-22T23:58:50.545Z,19.11
